Главная страница
METAR-TAF:

METAR-TAF

Аэропорты :

Бахрейн, Бахрейн

широта: 26-16N, долгота: 050-39E, высота над уровнем моря: 2 м

Текущие метеонаблюдения

Эта сводка был подготовлена 20 минут назад, в 11:00 UTC
Ветер 7 Узел от северо-западный, изменяющийся между западный и северо-северо-восточный
Температура 39°C
Влажность 28%
Давление 1007 hPa
Видимость 10 км и более
Нет облачности ниже 1500 м, и нет кучево-дождевой облачности

METAR: OBBI 241100Z 31007KT 280V020 CAVOK 39/17 Q1007 NOSIG

Время: 14:20 (11:20 UTC)

Прогноз

Эта сводка был подготовлена 6 часа и 20 минут назад, в 05:00 UTC
Прогноз действительный с 24-го 06 UTC до 25-го 12 UTC
Ветер 5 Узел переменных направлений
Видимость: 5000 м
изменения
С 24-го 07 UTC до 24-го 09 UTC
Ветер 10 Узел от северный
Видимость: 7000 м
изменения
С 24-го 15 UTC до 24-го 17 UTC
Ветер 5 Узел переменных направлений
Видимость: 5000 м

TAF: OBBI 240500Z 2406/2512 VRB05KT 5000 NSC BECMG 2407/2409 36010KT 7000 BECMG 2415/2417 VRB05KT 5000

Метеонаблюдения и прогнозы для более 4000 аэропортов (сводки METAR и TAF).

Имеющиеся станции представлены на карте желтыми и красными точками.

Чтобы увидеть название станции, наведите на нее мышь.

Затем щелкните, чтобы увидеть метеонаблюдения и метеопрогнозы.

Управление картой: чтобы увеличить масштаб, щелкните зеленые кнопки с черным крестиком; чтобы уменьшить масштаб, щелкните зеленую кнопку с тире; для просмотра соседних карт щелкайте зеленые стрелки.


METAR-TAF: